Time;durP1;ratioP1;P1;durP2;ratioP2;P2;SDS_P1;SDS_P2;PMS_P1;PMS_P2;Temp;Humidity;BMP_temperature;BMP_pressure;BME280_temperature;BME280_humidity;BME280_pressure;Samples;Min_cycle;Max_cycle;Signal;HPM_P1;HPM_P2
2022/04/10 00:00:40;;;;;;;10.02;3.78;;;2.50;99.90;;;;;;4988199;28;20033;-64
2022/04/10 00:03:07;;;;;;;9.02;3.70;;;2.50;99.90;;;;;;4984687;28;20040;-65
2022/04/10 00:05:32;;;;;;;11.00;4.80;;;2.40;99.90;;;;;;4988985;28;20117;-64
2022/04/10 00:07:58;;;;;;;10.90;4.15;;;2.40;99.90;;;;;;4984262;28;20439;-64
2022/04/10 00:10:24;;;;;;;12.65;4.30;;;2.40;99.90;;;;;;4990388;28;20486;-64
2022/04/10 00:12:50;;;;;;;8.45;3.75;;;2.30;99.90;;;;;;4989219;28;20380;-65
2022/04/10 00:15:15;;;;;;;7.63;3.88;;;2.30;99.90;;;;;;4989625;28;20046;-64
2022/04/10 00:17:41;;;;;;;11.38;3.72;;;2.30;99.90;;;;;;4989684;28;20034;-64
2022/04/10 00:20:09;;;;;;;10.25;3.67;;;2.20;99.90;;;;;;4986736;28;20372;-64
2022/04/10 00:22:46;;;;;;;10.20;3.90;;;2.20;99.90;;;;;;4988839;28;20097;-64
2022/04/10 00:25:13;;;;;;;8.82;3.78;;;2.20;99.90;;;;;;4988639;28;20558;-64
2022/04/10 00:27:40;;;;;;;10.00;3.80;;;2.10;99.90;;;;;;4988976;28;20057;-64
2022/04/10 00:30:10;;;;;;;10.98;4.25;;;2.10;99.90;;;;;;4988315;28;20034;-64
2022/04/10 00:32:36;;;;;;;9.48;3.90;;;2.10;99.90;;;;;;4988627;28;20041;-64
2022/04/10 00:35:03;;;;;;;14.25;4.13;;;2.10;99.90;;;;;;4986562;28;20049;-64
2022/04/10 00:37:28;;;;;;;8.60;3.50;;;2.10;99.90;;;;;;4989320;28;20030;-64
2022/04/10 00:39:54;;;;;;;10.18;3.65;;;2.00;99.90;;;;;;4988144;28;20031;-65
2022/04/10 00:42:20;;;;;;;11.77;4.47;;;2.00;99.90;;;;;;4988378;28;20037;-64
2022/04/10 00:44:47;;;;;;;10.32;3.40;;;2.00;99.90;;;;;;4988826;28;20490;-64
2022/04/10 00:47:13;;;;;;;8.25;3.08;;;2.00;99.90;;;;;;4980310;28;20039;-64
2022/04/10 00:49:39;;;;;;;12.07;3.72;;;2.00;99.90;;;;;;4989339;28;20034;-64
2022/04/10 00:52:08;;;;;;;7.97;3.40;;;2.00;99.90;;;;;;4987905;28;20042;-64
2022/04/10 00:54:35;;;;;;;9.23;3.50;;;1.90;99.90;;;;;;4988970;28;20084;-64
2022/04/10 00:57:02;;;;;;;12.13;4.53;;;1.90;99.90;;;;;;4988112;28;20042;-64
2022/04/10 00:59:31;;;;;;;7.95;3.40;;;1.90;99.90;;;;;;4988259;28;20069;-63
2022/04/10 01:01:56;;;;;;;16.42;4.53;;;1.90;99.90;;;;;;4988302;28;20056;-64
2022/04/10 01:04:22;;;;;;;7.72;3.35;;;2.00;99.90;;;;;;4980765;28;20491;-64
2022/04/10 01:06:54;;;;;;;10.95;4.13;;;2.00;99.90;;;;;;4987365;28;20391;-64
2022/04/10 01:09:20;;;;;;;13.55;4.07;;;1.90;99.90;;;;;;4988171;28;20034;-64
2022/04/10 01:11:46;;;;;;;8.90;3.78;;;1.90;99.90;;;;;;4988973;28;20033;-64
2022/04/10 01:14:13;;;;;;;9.32;3.70;;;1.90;99.90;;;;;;4985480;28;20030;-64
2022/04/10 01:16:39;;;;;;;11.90;3.75;;;2.00;99.90;;;;;;4988864;28;20034;-64
2022/04/10 01:19:05;;;;;;;9.52;4.03;;;2.00;99.90;;;;;;4987428;28;20069;-65
2022/04/10 01:21:33;;;;;;;10.43;4.32;;;2.00;99.90;;;;;;4988373;28;20029;-64
2022/04/10 01:23:59;;;;;;;11.43;3.85;;;2.00;99.90;;;;;;4984979;28;20030;-65
2022/04/10 01:26:26;;;;;;;14.27;3.90;;;2.00;99.90;;;;;;4988347;28;20045;-64
2022/04/10 01:29:02;;;;;;;9.63;4.03;;;2.00;99.90;;;;;;4987560;28;20038;-64
2022/04/10 01:31:30;;;;;;;11.10;3.92;;;2.00;99.90;;;;;;4986838;28;20041;-64
2022/04/10 01:33:59;;;;;;;11.23;4.00;;;2.00;99.90;;;;;;4987559;28;20097;-65
2022/04/10 01:36:28;;;;;;;11.15;4.35;;;2.00;99.90;;;;;;4988364;28;20598;-64
2022/04/10 01:38:55;;;;;;;9.45;4.13;;;2.10;99.90;;;;;;4986912;28;20026;-64
2022/04/10 01:41:25;;;;;;;10.00;3.78;;;2.10;99.90;;;;;;4987489;28;20149;-65
2022/04/10 01:43:52;;;;;;;8.75;3.35;;;2.10;99.90;;;;;;4987573;28;20058;-64
2022/04/10 01:46:19;;;;;;;11.43;3.80;;;2.10;99.90;;;;;;4988313;28;20054;-65
2022/04/10 01:48:45;;;;;;;10.20;4.30;;;2.20;99.90;;;;;;4985439;28;20034;-65
2022/04/10 01:51:12;;;;;;;12.80;4.53;;;2.20;99.90;;;;;;4988145;28;20526;-64
2022/04/10 01:53:38;;;;;;;11.35;4.25;;;2.20;99.90;;;;;;4987202;28;20113;-64
2022/04/10 01:56:04;;;;;;;9.50;4.35;;;2.20;99.90;;;;;;4988087;28;20109;-64
2022/04/10 01:58:38;;;;;;;12.57;4.38;;;2.20;99.90;;;;;;4985843;28;20042;-64
2022/04/10 02:01:06;;;;;;;10.52;4.05;;;2.30;99.90;;;;;;4988321;28;20033;-64
2022/04/10 02:03:32;;;;;;;11.15;4.22;;;2.30;99.90;;;;;;4987120;28;20038;-65
2022/04/10 02:06:00;;;;;;;10.10;3.88;;;2.30;99.90;;;;;;4988691;28;20124;-65
2022/04/10 02:08:26;;;;;;;12.35;4.50;;;2.40;99.90;;;;;;4986342;28;20213;-64
2022/04/10 02:10:52;;;;;;;11.35;4.55;;;2.40;99.90;;;;;;4987688;28;20030;-64
2022/04/10 02:13:19;;;;;;;9.45;4.30;;;2.30;99.90;;;;;;4985565;28;20045;-64
2022/04/10 02:15:45;;;;;;;12.00;4.53;;;2.30;99.90;;;;;;4986544;28;20420;-64
2022/04/10 02:18:11;;;;;;;11.40;4.95;;;2.20;99.90;;;;;;4984484;28;20041;-64
2022/04/10 02:20:37;;;;;;;10.40;4.32;;;2.10;99.90;;;;;;4988789;28;20034;-64
2022/04/10 02:23:03;;;;;;;10.02;5.22;;;2.10;99.90;;;;;;4986447;28;20543;-65
2022/04/10 02:25:29;;;;;;;9.32;4.30;;;2.10;99.90;;;;;;4987941;28;20062;-64
2022/04/10 02:27:54;;;;;;;14.50;4.88;;;2.00;99.90;;;;;;4976111;28;20116;-65
2022/04/10 02:30:20;;;;;;;13.93;4.97;;;2.00;99.90;;;;;;4984500;28;20034;-64
2022/04/10 02:32:46;;;;;;;12.27;5.18;;;1.90;99.90;;;;;;4991071;28;20037;-64
2022/04/10 02:35:12;;;;;;;9.55;4.80;;;1.90;99.90;;;;;;4990854;28;20031;-64
2022/04/10 02:37:38;;;;;;;10.23;4.32;;;1.80;99.90;;;;;;4991519;28;20038;-64
2022/04/10 02:40:05;;;;;;;12.45;4.95;;;1.80;99.90;;;;;;4990450;28;20064;-65
2022/04/10 02:42:33;;;;;;;17.10;5.78;;;1.80;99.90;;;;;;4991174;28;20038;-64
2022/04/10 02:45:03;;;;;;;15.18;5.32;;;1.80;99.90;;;;;;4987630;28;20446;-65
2022/04/10 02:47:30;;;;;;;11.07;4.70;;;1.70;99.90;;;;;;4991140;28;20042;-64
2022/04/10 02:49:56;;;;;;;10.68;4.90;;;1.70;99.90;;;;;;4990934;28;20169;-64
2022/04/10 02:52:22;;;;;;;11.40;4.88;;;1.70;99.90;;;;;;4989220;28;20109;-64
2022/04/10 02:54:48;;;;;;;14.95;5.80;;;1.70;99.90;;;;;;4991896;28;20027;-64
2022/04/10 02:57:14;;;;;;;14.75;4.90;;;1.60;99.90;;;;;;4988805;28;20689;-64
2022/04/10 02:59:39;;;;;;;14.35;5.55;;;1.60;99.90;;;;;;4991996;28;20033;-64
2022/04/10 03:02:05;;;;;;;14.32;5.20;;;1.60;99.90;;;;;;4988091;28;20098;-65
2022/04/10 03:04:31;;;;;;;18.45;5.63;;;1.70;99.90;;;;;;4992082;28;20062;-64
2022/04/10 03:06:57;;;;;;;9.73;4.45;;;1.60;99.90;;;;;;4988558;28;20045;-64
2022/04/10 03:09:22;;;;;;;15.85;5.65;;;1.60;99.90;;;;;;4990529;28;20026;-64
2022/04/10 03:11:48;;;;;;;12.07;5.25;;;1.50;99.90;;;;;;4988660;28;20022;-64
2022/04/10 03:14:14;;;;;;;10.82;5.00;;;1.50;99.90;;;;;;4990270;28;20027;-64
2022/04/10 03:16:40;;;;;;;11.30;5.07;;;1.40;99.90;;;;;;4990999;28;20176;-64
2022/04/10 03:19:05;;;;;;;14.85;5.60;;;1.40;99.90;;;;;;4988359;28;20112;-65
2022/04/10 03:21:31;;;;;;;11.25;5.32;;;1.40;99.90;;;;;;4986233;28;20030;-64
2022/04/10 03:23:57;;;;;;;13.43;5.18;;;1.40;99.90;;;;;;4990633;28;20026;-64
2022/04/10 03:26:22;;;;;;;14.07;5.55;;;1.40;99.90;;;;;;4989779;28;20479;-64
2022/04/10 03:28:48;;;;;;;15.25;5.60;;;1.40;99.90;;;;;;4990644;28;20030;-64
2022/04/10 03:31:14;;;;;;;13.57;5.55;;;1.40;99.90;;;;;;4988227;28;20050;-64
2022/04/10 03:33:39;;;;;;;11.25;5.60;;;1.40;99.90;;;;;;4991247;28;20116;-66
2022/04/10 03:36:05;;;;;;;13.32;5.10;;;1.30;99.90;;;;;;4989063;28;20042;-64
2022/04/10 03:38:31;;;;;;;12.30;5.45;;;1.30;99.90;;;;;;4990792;28;20045;-63
2022/04/10 03:40:57;;;;;;;12.18;5.50;;;1.40;99.90;;;;;;4989971;28;20542;-64
2022/04/10 03:43:23;;;;;;;16.25;5.47;;;1.30;99.90;;;;;;4987827;28;20046;-64
2022/04/10 03:45:48;;;;;;;13.63;5.82;;;1.20;99.90;;;;;;4990469;28;20038;-64
2022/04/10 03:48:14;;;;;;;13.88;5.80;;;1.20;99.90;;;;;;4989013;28;20030;-64
2022/04/10 03:50:40;;;;;;;20.95;6.22;;;1.10;99.90;;;;;;4981869;28;20034;-64
2022/04/10 03:53:06;;;;;;;17.77;5.78;;;1.10;99.90;;;;;;4987129;28;20411;-65
2022/04/10 03:55:35;;;;;;;17.75;6.47;;;1.10;99.90;;;;;;4990003;28;20035;-64
2022/04/10 03:58:00;;;;;;;12.43;5.32;;;1.10;99.90;;;;;;4989862;28;20109;-64
2022/04/10 04:00:27;;;;;;;21.42;6.75;;;1.10;99.90;;;;;;4988625;28;20141;-64
2022/04/10 04:02:53;;;;;;;15.40;6.07;;;1.10;99.90;;;;;;4986966;28;20113;-65
2022/04/10 04:05:18;;;;;;;13.20;5.60;;;1.10;99.90;;;;;;4988617;28;20027;-64
2022/04/10 04:07:44;;;;;;;16.52;6.38;;;1.00;99.90;;;;;;4988415;28;20050;-64
2022/04/10 04:10:10;;;;;;;16.15;6.22;;;1.00;99.90;;;;;;4987674;28;20065;-64
2022/04/10 04:12:36;;;;;;;15.80;6.72;;;1.10;99.90;;;;;;4989311;28;20467;-65
2022/04/10 04:15:03;;;;;;;13.23;5.47;;;1.10;99.90;;;;;;4989971;28;20077;-64
2022/04/10 04:17:29;;;;;;;16.50;6.28;;;1.10;99.90;;;;;;4988970;28;20108;-64
2022/04/10 04:19:55;;;;;;;18.38;6.22;;;1.10;99.90;;;;;;4987402;28;20967;-65
2022/04/10 04:22:21;;;;;;;16.23;6.32;;;1.10;99.90;;;;;;4988342;28;20038;-65
2022/04/10 04:24:47;;;;;;;16.48;6.32;;;1.10;99.90;;;;;;4990080;28;20412;-64
2022/04/10 04:27:12;;;;;;;18.95;6.40;;;1.10;99.90;;;;;;4987673;28;20038;-64
2022/04/10 04:29:38;;;;;;;19.48;7.45;;;1.10;99.90;;;;;;4990139;28;20026;-64
2022/04/10 04:32:06;;;;;;;16.25;6.75;;;1.10;99.90;;;;;;4987535;28;20050;-64
2022/04/10 04:34:31;;;;;;;18.80;7.00;;;1.10;99.90;;;;;;4987381;28;20038;-64
2022/04/10 04:36:57;;;;;;;15.75;6.45;;;1.00;99.90;;;;;;4987392;28;20048;-65
2022/04/10 04:39:23;;;;;;;17.08;6.35;;;1.10;99.90;;;;;;4987249;28;20030;-65
2022/04/10 04:41:49;;;;;;;15.30;6.43;;;1.00;99.90;;;;;;4988294;28;20026;-65
2022/04/10 04:44:15;;;;;;;16.17;6.90;;;1.00;99.90;;;;;;4988130;28;20092;-64
2022/04/10 04:46:41;;;;;;;20.75;7.40;;;1.00;99.90;;;;;;4988387;28;20177;-65
2022/04/10 04:49:07;;;;;;;14.77;6.20;;;1.00;99.90;;;;;;4989448;28;20042;-65
2022/04/10 04:51:36;;;;;;;15.25;6.53;;;1.00;99.90;;;;;;4986343;28;20667;-64
2022/04/10 04:54:08;;;;;;;17.33;6.43;;;1.00;99.90;;;;;;4986085;28;20125;-64
2022/04/10 04:56:34;;;;;;;14.68;6.15;;;0.90;99.90;;;;;;4988614;28;20061;-65
2022/04/10 04:58:59;;;;;;;18.33;6.97;;;0.90;99.90;;;;;;4988461;28;20502;-65
2022/04/10 05:01:25;;;;;;;16.95;6.32;;;0.90;99.90;;;;;;4986338;28;20066;-65
2022/04/10 05:03:51;;;;;;;15.68;6.85;;;0.90;99.90;;;;;;4989097;28;20030;-65
2022/04/10 05:06:17;;;;;;;15.60;7.07;;;0.90;99.90;;;;;;4983886;28;20086;-65
2022/04/10 05:08:46;;;;;;;18.88;6.20;;;0.90;99.90;;;;;;4989218;28;20105;-65
2022/04/10 05:11:15;;;;;;;17.83;7.05;;;0.90;99.90;;;;;;4985944;28;20030;-66
2022/04/10 05:13:41;;;;;;;16.38;6.72;;;0.90;99.90;;;;;;4982236;28;20026;-65
2022/04/10 05:16:07;;;;;;;19.20;6.85;;;0.90;99.90;;;;;;4988265;28;20061;-64
2022/04/10 05:18:33;;;;;;;22.00;6.88;;;0.90;99.90;;;;;;4988944;28;20030;-65
2022/04/10 05:21:00;;;;;;;14.15;6.55;;;0.90;99.90;;;;;;4988445;28;20098;-65
2022/04/10 05:23:25;;;;;;;16.65;6.35;;;1.00;99.90;;;;;;4986696;28;20034;-65
2022/04/10 05:25:51;;;;;;;15.73;6.57;;;1.00;99.90;;;;;;4988419;28;20038;-65
2022/04/10 05:28:17;;;;;;;16.02;6.60;;;1.10;99.90;;;;;;4986970;28;20446;-65
2022/04/10 05:30:43;;;;;;;16.83;6.40;;;1.20;99.90;;;;;;4988215;28;20061;-65
2022/04/10 05:33:10;;;;;;;13.35;6.25;;;1.20;99.90;;;;;;4986540;28;20065;-65
2022/04/10 05:35:36;;;;;;;15.90;6.10;;;1.30;99.90;;;;;;4984519;28;20035;-65
2022/04/10 05:38:02;;;;;;;16.02;7.03;;;1.30;99.90;;;;;;4988328;28;20442;-65
2022/04/10 05:40:28;;;;;;;16.17;6.38;;;1.40;99.90;;;;;;4987452;28;20465;-65
2022/04/10 05:42:54;;;;;;;17.35;6.35;;;1.40;99.90;;;;;;4988297;28;20022;-65
2022/04/10 05:45:19;;;;;;;18.00;6.63;;;1.40;99.90;;;;;;4986117;28;20503;-65
2022/04/10 05:47:45;;;;;;;13.63;5.90;;;1.40;99.90;;;;;;4988080;28;20049;-65
2022/04/10 05:50:12;;;;;;;19.08;6.72;;;1.50;99.90;;;;;;4987564;28;20430;-66
2022/04/10 05:52:46;;;;;;;16.15;6.47;;;1.50;99.90;;;;;;4987276;28;20038;-65
2022/04/10 05:55:14;;;;;;;16.27;6.85;;;1.60;99.90;;;;;;4987820;28;20038;-66
2022/04/10 05:57:40;;;;;;;14.27;6.30;;;1.60;99.90;;;;;;4987718;28;20436;-65
2022/04/10 06:00:10;;;;;;;14.95;6.50;;;1.70;99.90;;;;;;4985275;28;20471;-65
2022/04/10 06:02:37;;;;;;;16.17;6.05;;;1.70;99.90;;;;;;4985440;28;20034;-65
2022/04/10 06:05:03;;;;;;;21.00;7.20;;;1.80;99.90;;;;;;4987413;28;20035;-65
2022/04/10 06:07:29;;;;;;;18.42;7.25;;;1.80;99.90;;;;;;4982815;28;20458;-65
2022/04/10 06:09:55;;;;;;;17.88;7.00;;;1.80;99.90;;;;;;4991609;28;20030;-65
2022/04/10 06:12:21;;;;;;;17.13;7.43;;;1.80;99.90;;;;;;4990511;28;20046;-65
2022/04/10 06:14:46;;;;;;;17.00;6.65;;;1.80;99.90;;;;;;4992276;28;20034;-66
2022/04/10 06:17:12;;;;;;;16.98;7.07;;;1.80;99.90;;;;;;4991022;28;20046;-66
2022/04/10 06:19:38;;;;;;;15.80;7.00;;;1.90;99.90;;;;;;4991771;28;20050;-65
2022/04/10 06:22:05;;;;;;;16.83;6.72;;;1.90;99.90;;;;;;4989759;28;20109;-66
2022/04/10 06:24:31;;;;;;;17.17;7.07;;;2.00;99.90;;;;;;4991008;28;20023;-66
2022/04/10 06:26:57;;;;;;;19.67;7.13;;;2.00;99.90;;;;;;4990092;28;20049;-66
2022/04/10 06:29:23;;;;;;;17.92;6.63;;;2.10;99.90;;;;;;4990629;28;20068;-66
2022/04/10 06:31:49;;;;;;;18.10;6.95;;;2.20;99.90;;;;;;4991207;28;20022;-66
2022/04/10 06:34:15;;;;;;;14.52;7.30;;;2.40;99.90;;;;;;4990474;28;20189;-66
2022/04/10 06:36:41;;;;;;;13.77;6.07;;;2.60;99.90;;;;;;4989172;28;20475;-66
2022/04/10 06:39:07;;;;;;;15.40;6.60;;;2.70;99.90;;;;;;4988796;28;20062;-66
2022/04/10 06:41:33;;;;;;;15.02;5.82;;;2.70;99.90;;;;;;4991167;28;20097;-66
2022/04/10 06:43:59;;;;;;;15.65;6.53;;;2.80;99.90;;;;;;4991683;28;20050;-66
2022/04/10 06:46:26;;;;;;;13.95;6.18;;;2.80;99.90;;;;;;4990690;28;20802;-66
2022/04/10 06:48:53;;;;;;;14.93;6.60;;;2.80;99.90;;;;;;4990267;28;20113;-67
2022/04/10 06:51:19;;;;;;;15.52;6.70;;;2.80;99.90;;;;;;4990124;28;20023;-66
2022/04/10 06:53:45;;;;;;;16.75;6.43;;;2.90;99.90;;;;;;4991091;28;20069;-66
2022/04/10 06:56:11;;;;;;;14.43;6.20;;;2.90;99.90;;;;;;4988819;28;20038;-67
2022/04/10 06:58:37;;;;;;;16.27;6.95;;;2.90;99.90;;;;;;4990010;28;20030;-66
2022/04/10 07:01:02;;;;;;;14.68;7.05;;;3.00;99.90;;;;;;4991912;28;20085;-66
2022/04/10 07:03:29;;;;;;;15.05;6.70;;;3.00;99.90;;;;;;4990298;28;20482;-66
2022/04/10 07:05:54;;;;;;;13.63;6.28;;;3.10;99.90;;;;;;4983876;28;20134;-66
2022/04/10 07:08:20;;;;;;;15.90;7.03;;;3.10;99.90;;;;;;4983830;28;20083;-66
2022/04/10 07:10:46;;;;;;;15.88;6.78;;;3.20;99.90;;;;;;4990511;28;20471;-66
2022/04/10 07:13:18;;;;;;;17.02;6.68;;;3.20;99.90;;;;;;4990220;28;20042;-66
2022/04/10 07:15:50;;;;;;;18.05;6.63;;;3.30;99.90;;;;;;4989881;28;20560;-67
2022/04/10 07:18:16;;;;;;;13.52;6.32;;;3.30;99.90;;;;;;4987654;28;20346;-67
2022/04/10 07:20:41;;;;;;;15.43;7.07;;;3.50;99.90;;;;;;4988922;28;20510;-67
2022/04/10 07:25:52;;;;;;;17.52;7.20;;;3.70;99.90;;;;;;4990285;28;20065;-67
2022/04/10 07:28:18;;;;;;;16.45;6.18;;;3.90;99.90;;;;;;4990827;28;20105;-67
2022/04/10 07:30:44;;;;;;;12.38;6.05;;;4.00;99.90;;;;;;4988709;28;20637;-67
2022/04/10 07:33:10;;;;;;;13.98;6.45;;;4.10;99.90;;;;;;4989998;28;20034;-67
2022/04/10 07:35:36;;;;;;;12.82;6.50;;;4.20;99.90;;;;;;4990102;28;20030;-67
2022/04/10 07:38:03;;;;;;;14.60;6.72;;;4.30;99.90;;;;;;4989006;28;20443;-67
2022/04/10 07:40:29;;;;;;;18.02;6.70;;;4.20;99.90;;;;;;4990037;28;20057;-67
2022/04/10 07:42:56;;;;;;;15.57;6.78;;;4.20;99.90;;;;;;4989634;28;20089;-67
2022/04/10 07:48:07;;;;;;;11.55;6.20;;;4.30;99.90;;;;;;4990471;28;20050;-67
2022/04/10 07:50:33;;;;;;;11.77;5.53;;;4.50;99.90;;;;;;4987562;28;20022;-67
2022/04/10 07:52:59;;;;;;;13.85;5.05;;;4.70;99.90;;;;;;4988366;28;20053;-67
2022/04/10 07:55:27;;;;;;;12.80;5.60;;;4.60;99.90;;;;;;4990039;28;20479;-68
2022/04/10 07:57:54;;;;;;;13.20;5.18;;;4.70;99.90;;;;;;4983547;28;20073;-67
2022/04/10 08:00:20;;;;;;;19.23;5.25;;;4.90;99.90;;;;;;4990376;28;20035;-67
2022/04/10 08:02:48;;;;;;;8.55;3.70;;;5.00;99.90;;;;;;4989348;28;20039;-66
2022/04/10 08:05:18;;;;;;;7.57;3.50;;;5.10;99.90;;;;;;4988875;28;20026;-67
2022/04/10 08:07:44;;;;;;;5.75;3.00;;;5.10;99.90;;;;;;4990170;28;20034;-67
2022/04/10 08:10:12;;;;;;;10.15;3.70;;;5.10;99.90;;;;;;4990808;28;20088;-67
2022/04/10 08:12:38;;;;;;;9.80;3.75;;;5.40;99.90;;;;;;4986339;28;20038;-67
2022/04/10 08:15:04;;;;;;;8.80;3.05;;;5.50;99.90;;;;;;4990551;28;20038;-67
2022/04/10 08:17:30;;;;;;;9.85;3.20;;;5.50;99.90;;;;;;4989660;28;20038;-67
2022/04/10 08:19:56;;;;;;;8.25;3.35;;;5.60;99.90;;;;;;4990435;28;20039;-67
2022/04/10 08:22:28;;;;;;;8.75;3.50;;;5.70;99.90;;;;;;4989702;28;20055;-68
2022/04/10 08:24:53;;;;;;;7.25;3.03;;;5.80;99.90;;;;;;4990454;28;20030;-68
2022/04/10 08:27:20;;;;;;;7.65;3.42;;;5.70;99.90;;;;;;4990205;28;20038;-67
2022/04/10 08:29:46;;;;;;;8.02;3.22;;;5.80;99.90;;;;;;4989868;28;20045;-67
2022/04/10 08:32:12;;;;;;;7.18;3.40;;;5.90;99.90;;;;;;4990421;28;20034;-67
2022/04/10 08:34:37;;;;;;;9.25;3.58;;;6.00;99.90;;;;;;4984583;28;20482;-67
2022/04/10 08:37:05;;;;;;;10.60;3.35;;;6.10;99.90;;;;;;4989405;28;20033;-68
2022/04/10 08:39:34;;;;;;;7.50;2.72;;;6.00;99.90;;;;;;4986594;28;20033;-70
2022/04/10 08:42:05;;;;;;;8.00;2.70;;;6.20;99.90;;;;;;4989755;28;20436;-70
2022/04/10 08:44:32;;;;;;;8.45;3.13;;;6.00;99.90;;;;;;4987807;28;20068;-67
2022/04/10 08:47:01;;;;;;;5.88;2.70;;;6.00;99.90;;;;;;4986996;28;20045;-65
2022/04/10 08:49:30;;;;;;;9.63;2.80;;;6.10;99.90;;;;;;4985486;28;20053;-65
2022/04/10 08:52:00;;;;;;;10.52;2.65;;;6.10;99.90;;;;;;4989061;28;20042;-65
2022/04/10 08:54:26;;;;;;;6.50;2.83;;;6.00;99.90;;;;;;4985915;28;20034;-64
2022/04/10 08:56:54;;;;;;;6.88;3.05;;;6.10;99.90;;;;;;4987778;28;20034;-65
2022/04/10 08:59:21;;;;;;;5.45;2.85;;;6.10;99.90;;;;;;4989514;28;20395;-65
2022/04/10 09:01:53;;;;;;;5.85;2.60;;;6.20;99.90;;;;;;4987677;28;20038;-65
2022/04/10 09:04:20;;;;;;;9.25;3.10;;;6.10;99.90;;;;;;4989033;28;20030;-66
2022/04/10 09:07:08;;;;;;;10.73;3.28;;;6.10;99.90;;;;;;4986000;28;20026;-66
2022/04/10 09:09:39;;;;;;;6.75;3.00;;;6.20;99.90;;;;;;4987375;28;20092;-65
2022/04/10 09:12:05;;;;;;;9.18;3.55;;;6.40;99.90;;;;;;4983559;28;20457;-65
2022/04/10 09:14:39;;;;;;;7.38;3.38;;;6.60;99.90;;;;;;4983730;28;20069;-65
2022/04/10 09:17:29;;;;;;;12.05;4.22;;;6.70;99.90;;;;;;4982226;28;20046;-65
2022/04/10 09:19:57;;;;;;;7.28;3.05;;;6.60;99.90;;;;;;4989118;28;20030;-66
2022/04/10 09:22:37;;;;;;;12.90;3.85;;;6.60;99.90;;;;;;4988162;28;20030;-66
2022/04/10 09:25:13;;;;;;;8.50;4.07;;;6.50;99.90;;;;;;4982027;28;20030;-66
2022/04/10 09:27:43;;;;;;;9.20;3.92;;;6.50;99.90;;;;;;4983543;28;20045;-65
2022/04/10 09:30:12;;;;;;;11.45;4.03;;;6.50;99.90;;;;;;4988613;28;20105;-67
2022/04/10 09:32:44;;;;;;;7.72;3.85;;;6.50;99.90;;;;;;4987430;28;20037;-64
2022/04/10 09:35:14;;;;;;;9.05;4.13;;;6.40;99.90;;;;;;4989144;28;20387;-68
2022/04/10 09:37:44;;;;;;;;;;;6.50;99.90;;;;;;4987027;28;20371;-65
2022/04/10 09:40:32;;;;;;;8.85;4.15;;;6.70;99.90;;;;;;4988732;28;20377;-65
2022/04/10 09:43:06;;;;;;;9.00;4.32;;;6.90;99.90;;;;;;4989006;28;20069;-65
2022/04/10 09:45:35;;;;;;;10.23;4.60;;;7.00;99.90;;;;;;4949555;29;20089;-65
2022/04/10 09:48:27;;;;;;;11.95;4.00;;;7.10;99.90;;;;;;4949373;28;20106;-65
2022/04/10 09:51:01;;;;;;;17.00;5.05;;;7.30;99.90;;;;;;4949139;28;20042;-65
2022/04/10 09:53:28;;;;;;;7.75;4.60;;;7.60;99.90;;;;;;4948587;28;20031;-66
2022/04/10 09:56:00;;;;;;;10.60;4.60;;;7.60;99.90;;;;;;4948901;28;20481;-65
2022/04/10 09:58:26;;;;;;;10.68;4.40;;;7.90;99.90;;;;;;4949027;29;20522;-65
2022/04/10 10:00:54;;;;;;;12.60;4.82;;;8.10;99.90;;;;;;4943362;28;20036;-65
2022/04/10 10:03:28;;;;;;;10.13;4.68;;;8.20;99.90;;;;;;4949653;28;20024;-65
2022/04/10 10:05:55;;;;;;;10.98;5.35;;;8.10;99.90;;;;;;4948190;29;20540;-65
2022/04/10 10:08:23;;;;;;;11.35;4.95;;;8.10;99.90;;;;;;4948622;28;20041;-65
2022/04/10 10:10:49;;;;;;;11.65;4.82;;;8.10;99.90;;;;;;4963038;28;20691;-65
2022/04/10 10:13:15;;;;;;;12.77;5.93;;;8.00;99.90;;;;;;4950169;28;20062;-65
2022/04/10 10:15:43;;;;;;;15.20;5.45;;;7.80;99.90;;;;;;4962075;28;20035;-65
2022/04/10 10:18:10;;;;;;;9.65;4.45;;;7.60;99.90;;;;;;4949097;28;20034;-64
2022/04/10 10:20:38;;;;;;;12.45;5.25;;;7.50;99.90;;;;;;4946998;28;20039;-65
2022/04/10 10:23:08;;;;;;;9.27;4.72;;;7.20;99.90;;;;;;4964612;28;20365;-65
2022/04/10 10:25:43;;;;;;;8.20;3.70;;;7.30;99.90;;;;;;4947859;28;20027;-65
2022/04/10 10:28:23;;;;;;;9.63;4.30;;;7.40;99.90;;;;;;4948969;28;21612;-65
2022/04/10 10:31:11;;;;;;;9.07;4.22;;;7.30;99.90;;;;;;4948202;28;20054;-65
2022/04/10 10:33:40;;;;;;;9.30;4.38;;;7.10;99.90;;;;;;4943289;29;20423;-65
2022/04/10 10:36:09;;;;;;;9.18;4.28;;;7.00;99.90;;;;;;4946876;28;20506;-65
2022/04/10 10:38:35;;;;;;;12.88;4.65;;;7.10;99.90;;;;;;4947426;28;20059;-65
2022/04/10 10:41:16;;;;;;;11.52;4.25;;;7.10;99.90;;;;;;4945514;28;20456;-66
2022/04/10 10:43:42;;;;;;;10.75;4.20;;;7.30;99.90;;;;;;4959299;28;20402;-65
2022/04/10 10:46:23;;;;;;;9.27;4.25;;;7.20;99.90;;;;;;4986097;28;20073;-66
2022/04/10 10:48:50;;;;;;;10.50;4.03;;;7.30;99.90;;;;;;4985580;28;20225;-66
2022/04/10 10:51:16;;;;;;;8.23;4.28;;;7.40;99.90;;;;;;4970803;28;20149;-66
2022/04/10 10:53:53;;;;;;;8.57;4.00;;;7.40;99.90;;;;;;4970341;28;20038;-68
2022/04/10 10:56:31;;;;;;;7.72;4.35;;;7.60;99.90;;;;;;4978829;28;20038;-69
2022/04/10 10:59:24;;;;;;;10.35;4.40;;;7.60;99.90;;;;;;4972462;28;20038;-68
2022/04/10 11:01:51;;;;;;;7.82;4.28;;;7.70;99.90;;;;;;4970857;28;20162;-63
2022/04/10 11:04:20;;;;;;;10.60;4.65;;;7.50;99.90;;;;;;4987960;28;20173;-63
2022/04/10 11:06:50;;;;;;;9.20;4.38;;;7.60;99.90;;;;;;4988929;28;20064;-64
2022/04/10 11:09:31;;;;;;;11.57;4.85;;;7.90;99.90;;;;;;4986897;28;20034;-63
2022/04/10 11:11:59;;;;;;;11.20;4.38;;;8.10;99.90;;;;;;4987068;28;20034;-64
2022/04/10 11:14:35;;;;;;;11.75;4.32;;;8.40;99.90;;;;;;4990444;28;20081;-64
2022/04/10 11:17:31;;;;;;;8.40;3.90;;;8.20;99.90;;;;;;4990998;28;20057;-63
2022/04/10 11:20:05;;;;;;;9.50;4.45;;;8.10;99.90;;;;;;4985575;28;20100;-63
2022/04/10 11:22:37;;;;;;;9.32;4.32;;;8.30;99.90;;;;;;4990248;28;20042;-63
2022/04/10 11:25:08;;;;;;;10.80;5.28;;;8.40;99.90;;;;;;4989753;28;20061;-63
2022/04/10 11:27:41;;;;;;;8.57;4.20;;;8.50;99.90;;;;;;4989809;28;20033;-63
2022/04/10 11:30:07;;;;;;;7.90;3.80;;;7.80;99.90;;;;;;4989905;28;20439;-63
2022/04/10 11:32:44;;;;;;;8.43;3.75;;;7.50;99.90;;;;;;4987003;28;20061;-63
2022/04/10 11:35:30;;;;;;;7.43;3.50;;;7.40;99.90;;;;;;4988487;28;20037;-64
2022/04/10 11:37:58;;;;;;;8.40;3.70;;;7.30;99.90;;;;;;4983108;28;20467;-64
2022/04/10 11:40:33;;;;;;;7.20;3.75;;;6.50;99.90;;;;;;4987571;28;20034;-63
2022/04/10 11:43:02;;;;;;;9.57;3.90;;;6.00;99.90;;;;;;4985843;28;20058;-62
2022/04/10 11:45:30;;;;;;;8.80;4.07;;;6.00;99.90;;;;;;4989473;28;20129;-63
2022/04/10 11:47:58;;;;;;;9.02;4.35;;;6.80;99.90;;;;;;4988942;28;20125;-63
2022/04/10 11:50:25;;;;;;;9.38;4.32;;;7.10;99.90;;;;;;4987815;28;20040;-63
2022/04/10 11:52:58;;;;;;;10.23;4.28;;;7.10;99.90;;;;;;4988595;28;20037;-64
2022/04/10 11:55:41;;;;;;;7.05;4.20;;;7.50;99.90;;;;;;4988516;28;20580;-63
2022/04/10 11:58:15;;;;;;;12.25;4.15;;;8.00;99.90;;;;;;4984928;28;20081;-63
2022/04/10 12:00:54;;;;;;;10.20;4.85;;;7.90;99.90;;;;;;4988090;28;20073;-63
2022/04/10 12:03:22;;;;;;;9.88;4.60;;;8.00;99.90;;;;;;4988201;28;20048;-63
2022/04/10 12:05:49;;;;;;;10.38;4.60;;;8.20;99.90;;;;;;4988651;28;20030;-64
2022/04/10 12:08:16;;;;;;;10.15;4.57;;;8.30;99.90;;;;;;4984410;28;20129;-63
2022/04/10 12:10:53;;;;;;;12.57;4.75;;;8.10;99.90;;;;;;4987046;28;20030;-64
2022/04/10 12:13:26;;;;;;;9.52;4.32;;;7.60;99.90;;;;;;4985292;28;20218;-63
2022/04/10 12:16:08;;;;;;;13.07;4.75;;;7.60;99.90;;;;;;4989326;28;20030;-63
2022/04/10 12:18:52;;;;;;;10.40;4.63;;;7.80;99.90;;;;;;4989360;28;20034;-63
2022/04/10 12:21:20;;;;;;;9.35;4.82;;;8.00;99.90;;;;;;4985578;28;20036;-63
2022/04/10 12:23:46;;;;;;;9.70;4.57;;;8.10;99.90;;;;;;4988037;28;20041;-63
2022/04/10 12:26:13;;;;;;;10.25;4.90;;;8.30;99.90;;;;;;4986378;28;20058;-64
2022/04/10 12:28:40;;;;;;;7.50;4.47;;;8.50;99.90;;;;;;4986586;28;20100;-63
2022/04/10 12:31:06;;;;;;;12.23;4.93;;;8.50;99.90;;;;;;4988262;28;20037;-62
2022/04/10 12:33:33;;;;;;;13.15;4.72;;;8.50;99.90;;;;;;4985520;28;20033;-62
2022/04/10 12:35:59;;;;;;;10.80;4.97;;;8.50;99.90;;;;;;4988627;28;20066;-62
2022/04/10 12:38:31;;;;;;;10.73;4.35;;;8.40;99.90;;;;;;4989886;28;20431;-62
2022/04/10 12:41:04;;;;;;;10.05;5.00;;;8.30;99.90;;;;;;4989207;28;20033;-62
2022/04/10 12:43:30;;;;;;;11.75;5.50;;;8.30;99.90;;;;;;4989626;28;20076;-62
2022/04/10 12:46:08;;;;;;;12.68;5.55;;;8.20;99.90;;;;;;4988691;28;20113;-62
2022/04/10 12:48:34;;;;;;;11.50;5.18;;;8.10;99.90;;;;;;4988142;28;20061;-62
2022/04/10 12:51:11;;;;;;;13.57;5.22;;;8.10;99.90;;;;;;4988708;28;20034;-62
2022/04/10 12:53:38;;;;;;;10.35;4.70;;;8.10;99.90;;;;;;4986548;28;20085;-64
2022/04/10 12:56:16;;;;;;;15.45;5.00;;;8.00;99.90;;;;;;4986587;28;20030;-62
2022/04/10 12:58:47;;;;;;;13.32;5.38;;;8.00;99.90;;;;;;4982890;28;20106;-62
2022/04/10 13:01:30;;;;;;;9.30;4.22;;;8.00;99.90;;;;;;4987631;28;20026;-63